sensor_id;sensor_type;location;lat;lon;timestamp;P1;durP1;ratioP1;P2;durP2;ratioP2
54787;SDS011;59598;48.112;16.280;2023-07-31T00:01:41;2.53;;;1.63;;
54787;SDS011;59598;48.112;16.280;2023-07-31T00:04:15;1.30;;;1.20;;
54787;SDS011;59598;48.112;16.280;2023-07-31T00:06:46;1.48;;;1.38;;
54787;SDS011;59598;48.112;16.280;2023-07-31T00:09:18;1.67;;;1.30;;
54787;SDS011;59598;48.112;16.280;2023-07-31T00:11:50;1.23;;;1.13;;
54787;SDS011;59598;48.112;16.280;2023-07-31T00:14:23;1.30;;;1.20;;
54787;SDS011;59598;48.112;16.280;2023-07-31T00:16:57;3.08;;;1.73;;
54787;SDS011;59598;48.112;16.280;2023-07-31T00:19:28;1.63;;;1.10;;
54787;SDS011;59598;48.112;16.280;2023-07-31T00:22:04;1.88;;;1.60;;
54787;SDS011;59598;48.112;16.280;2023-07-31T00:24:38;1.20;;;1.20;;
54787;SDS011;59598;48.112;16.280;2023-07-31T00:27:10;2.28;;;1.17;;
54787;SDS011;59598;48.112;16.280;2023-07-31T00:29:44;3.72;;;1.13;;
54787;SDS011;59598;48.112;16.280;2023-07-31T00:32:18;1.27;;;1.17;;
54787;SDS011;59598;48.112;16.280;2023-07-31T00:34:49;1.25;;;1.17;;
54787;SDS011;59598;48.112;16.280;2023-07-31T00:37:21;1.50;;;1.05;;
54787;SDS011;59598;48.112;16.280;2023-07-31T00:39:55;2.22;;;1.27;;
54787;SDS011;59598;48.112;16.280;2023-07-31T00:42:28;1.37;;;1.27;;
54787;SDS011;59598;48.112;16.280;2023-07-31T00:45:03;1.65;;;1.40;;
54787;SDS011;59598;48.112;16.280;2023-07-31T00:47:42;1.38;;;1.10;;
54787;SDS011;59598;48.112;16.280;2023-07-31T00:50:13;1.65;;;1.17;;
54787;SDS011;59598;48.112;16.280;2023-07-31T00:52:46;1.30;;;1.20;;
54787;SDS011;59598;48.112;16.280;2023-07-31T00:57:52;1.27;;;1.17;;
54787;SDS011;59598;48.112;16.280;2023-07-31T01:00:26;1.20;;;1.10;;
54787;SDS011;59598;48.112;16.280;2023-07-31T01:03:00;1.55;;;1.35;;
54787;SDS011;59598;48.112;16.280;2023-07-31T01:08:32;1.35;;;1.25;;
54787;SDS011;59598;48.112;16.280;2023-07-31T01:11:15;1.65;;;1.20;;
54787;SDS011;59598;48.112;16.280;2023-07-31T01:13:57;1.55;;;1.13;;
54787;SDS011;59598;48.112;16.280;2023-07-31T01:16:30;1.58;;;1.48;;
54787;SDS011;59598;48.112;16.280;2023-07-31T01:19:03;1.58;;;1.48;;
54787;SDS011;59598;48.112;16.280;2023-07-31T01:24:30;1.95;;;1.20;;
54787;SDS011;59598;48.112;16.280;2023-07-31T01:27:12;2.60;;;1.40;;
54787;SDS011;59598;48.112;16.280;2023-07-31T01:30:08;1.55;;;1.23;;
54787;SDS011;59598;48.112;16.280;2023-07-31T01:32:50;1.23;;;1.13;;
54787;SDS011;59598;48.112;16.280;2023-07-31T01:35:25;1.15;;;1.10;;
54787;SDS011;59598;48.112;16.280;2023-07-31T01:37:57;1.30;;;1.20;;
54787;SDS011;59598;48.112;16.280;2023-07-31T01:40:31;2.00;;;1.17;;
54787;SDS011;59598;48.112;16.280;2023-07-31T01:43:03;1.83;;;1.30;;
54787;SDS011;59598;48.112;16.280;2023-07-31T01:45:37;1.98;;;1.38;;
54787;SDS011;59598;48.112;16.280;2023-07-31T01:48:09;1.40;;;1.30;;
54787;SDS011;59598;48.112;16.280;2023-07-31T01:50:40;1.35;;;1.25;;
54787;SDS011;59598;48.112;16.280;2023-07-31T01:53:13;2.63;;;1.38;;
54787;SDS011;59598;48.112;16.280;2023-07-31T01:55:45;2.10;;;1.45;;
54787;SDS011;59598;48.112;16.280;2023-07-31T01:58:26;1.60;;;1.50;;
54787;SDS011;59598;48.112;16.280;2023-07-31T02:01:00;1.30;;;1.20;;
54787;SDS011;59598;48.112;16.280;2023-07-31T02:03:32;1.13;;;1.02;;
54787;SDS011;59598;48.112;16.280;2023-07-31T02:06:06;1.43;;;1.30;;
54787;SDS011;59598;48.112;16.280;2023-07-31T02:08:39;1.02;;;1.02;;
54787;SDS011;59598;48.112;16.280;2023-07-31T02:11:10;1.30;;;1.17;;
54787;SDS011;59598;48.112;16.280;2023-07-31T02:13:42;1.55;;;1.45;;
54787;SDS011;59598;48.112;16.280;2023-07-31T02:16:16;1.52;;;1.42;;
54787;SDS011;59598;48.112;16.280;2023-07-31T02:18:50;2.13;;;1.20;;
54787;SDS011;59598;48.112;16.280;2023-07-31T02:21:23;1.30;;;1.20;;
54787;SDS011;59598;48.112;16.280;2023-07-31T02:23:59;1.48;;;1.38;;
54787;SDS011;59598;48.112;16.280;2023-07-31T02:26:31;1.63;;;1.52;;
54787;SDS011;59598;48.112;16.280;2023-07-31T02:29:02;2.28;;;1.33;;
54787;SDS011;59598;48.112;16.280;2023-07-31T02:31:36;2.00;;;1.85;;
54787;SDS011;59598;48.112;16.280;2023-07-31T02:34:07;1.42;;;1.30;;
54787;SDS011;59598;48.112;16.280;2023-07-31T02:36:41;1.40;;;1.30;;
54787;SDS011;59598;48.112;16.280;2023-07-31T02:39:15;1.67;;;1.50;;
54787;SDS011;59598;48.112;16.280;2023-07-31T02:41:49;1.77;;;1.45;;
54787;SDS011;59598;48.112;16.280;2023-07-31T02:44:20;3.60;;;1.88;;
54787;SDS011;59598;48.112;16.280;2023-07-31T02:46:55;3.72;;;2.00;;
54787;SDS011;59598;48.112;16.280;2023-07-31T02:49:26;2.25;;;1.67;;
54787;SDS011;59598;48.112;16.280;2023-07-31T02:52:00;4.60;;;1.98;;
54787;SDS011;59598;48.112;16.280;2023-07-31T02:54:39;2.35;;;1.80;;
54787;SDS011;59598;48.112;16.280;2023-07-31T02:57:11;3.63;;;1.67;;
54787;SDS011;59598;48.112;16.280;2023-07-31T02:59:44;2.03;;;1.73;;
54787;SDS011;59598;48.112;16.280;2023-07-31T03:02:18;2.00;;;1.88;;
54787;SDS011;59598;48.112;16.280;2023-07-31T03:07:21;2.25;;;1.70;;
54787;SDS011;59598;48.112;16.280;2023-07-31T03:09:55;2.10;;;1.90;;
54787;SDS011;59598;48.112;16.280;2023-07-31T03:12:27;1.63;;;1.52;;
54787;SDS011;59598;48.112;16.280;2023-07-31T03:14:59;1.75;;;1.58;;
54787;SDS011;59598;48.112;16.280;2023-07-31T03:17:33;1.48;;;1.38;;
54787;SDS011;59598;48.112;16.280;2023-07-31T03:20:05;2.55;;;1.55;;
54787;SDS011;59598;48.112;16.280;2023-07-31T03:22:38;2.25;;;1.70;;
54787;SDS011;59598;48.112;16.280;2023-07-31T03:25:09;1.90;;;1.58;;
54787;SDS011;59598;48.112;16.280;2023-07-31T03:27:41;1.50;;;1.40;;
54787;SDS011;59598;48.112;16.280;2023-07-31T03:30:15;3.50;;;1.70;;
54787;SDS011;59598;48.112;16.280;2023-07-31T03:32:49;1.48;;;1.38;;
54787;SDS011;59598;48.112;16.280;2023-07-31T03:35:24;2.08;;;1.88;;
54787;SDS011;59598;48.112;16.280;2023-07-31T03:37:57;2.22;;;1.45;;
54787;SDS011;59598;48.112;16.280;2023-07-31T03:40:28;1.92;;;1.42;;
54787;SDS011;59598;48.112;16.280;2023-07-31T03:43:00;1.48;;;1.35;;
54787;SDS011;59598;48.112;16.280;2023-07-31T03:45:31;2.20;;;2.00;;
54787;SDS011;59598;48.112;16.280;2023-07-31T03:48:06;1.55;;;1.45;;
54787;SDS011;59598;48.112;16.280;2023-07-31T03:50:41;1.92;;;1.38;;
54787;SDS011;59598;48.112;16.280;2023-07-31T03:53:12;1.73;;;1.63;;
54787;SDS011;59598;48.112;16.280;2023-07-31T03:55:46;2.67;;;1.70;;
54787;SDS011;59598;48.112;16.280;2023-07-31T03:58:20;1.65;;;1.55;;
54787;SDS011;59598;48.112;16.280;2023-07-31T04:00:51;3.00;;;1.70;;
54787;SDS011;59598;48.112;16.280;2023-07-31T04:03:22;1.70;;;1.58;;
54787;SDS011;59598;48.112;16.280;2023-07-31T04:05:57;1.70;;;1.55;;
54787;SDS011;59598;48.112;16.280;2023-07-31T04:08:30;1.52;;;1.38;;
54787;SDS011;59598;48.112;16.280;2023-07-31T04:11:02;2.78;;;1.95;;
54787;SDS011;59598;48.112;16.280;2023-07-31T04:13:35;1.58;;;1.15;;
54787;SDS011;59598;48.112;16.280;2023-07-31T04:16:09;1.50;;;1.40;;
54787;SDS011;59598;48.112;16.280;2023-07-31T04:18:43;2.60;;;1.50;;
54787;SDS011;59598;48.112;16.280;2023-07-31T04:21:16;1.83;;;1.38;;
54787;SDS011;59598;48.112;16.280;2023-07-31T04:23:48;1.73;;;1.33;;
54787;SDS011;59598;48.112;16.280;2023-07-31T04:26:19;2.58;;;1.52;;
54787;SDS011;59598;48.112;16.280;2023-07-31T04:28:51;3.10;;;2.08;;
54787;SDS011;59598;48.112;16.280;2023-07-31T04:31:22;3.42;;;1.77;;
54787;SDS011;59598;48.112;16.280;2023-07-31T04:33:56;2.80;;;1.67;;
54787;SDS011;59598;48.112;16.280;2023-07-31T04:36:33;2.20;;;1.42;;
54787;SDS011;59598;48.112;16.280;2023-07-31T04:41:38;1.30;;;1.15;;
54787;SDS011;59598;48.112;16.280;2023-07-31T04:44:12;1.88;;;1.25;;
54787;SDS011;59598;48.112;16.280;2023-07-31T04:46:43;2.15;;;1.48;;
54787;SDS011;59598;48.112;16.280;2023-07-31T04:49:14;2.97;;;1.58;;
54787;SDS011;59598;48.112;16.280;2023-07-31T04:51:46;1.70;;;1.55;;
54787;SDS011;59598;48.112;16.280;2023-07-31T04:54:18;1.60;;;1.38;;
54787;SDS011;59598;48.112;16.280;2023-07-31T04:56:49;1.77;;;1.50;;
54787;SDS011;59598;48.112;16.280;2023-07-31T04:59:23;1.60;;;1.35;;
54787;SDS011;59598;48.112;16.280;2023-07-31T05:04:28;3.22;;;2.28;;
54787;SDS011;59598;48.112;16.280;2023-07-31T05:07:00;3.28;;;1.58;;
54787;SDS011;59598;48.112;16.280;2023-07-31T05:09:31;2.33;;;1.45;;
54787;SDS011;59598;48.112;16.280;2023-07-31T05:12:04;2.50;;;1.95;;
54787;SDS011;59598;48.112;16.280;2023-07-31T05:14:36;2.22;;;1.60;;
54787;SDS011;59598;48.112;16.280;2023-07-31T05:17:08;1.92;;;1.70;;
54787;SDS011;59598;48.112;16.280;2023-07-31T05:19:41;1.50;;;1.40;;
54787;SDS011;59598;48.112;16.280;2023-07-31T05:22:13;1.30;;;1.20;;
54787;SDS011;59598;48.112;16.280;2023-07-31T05:24:46;1.80;;;1.33;;
54787;SDS011;59598;48.112;16.280;2023-07-31T05:27:18;3.67;;;1.73;;
54787;SDS011;59598;48.112;16.280;2023-07-31T05:29:54;1.65;;;1.33;;
54787;SDS011;59598;48.112;16.280;2023-07-31T05:32:28;2.00;;;1.77;;
54787;SDS011;59598;48.112;16.280;2023-07-31T05:35:03;1.42;;;1.33;;
54787;SDS011;59598;48.112;16.280;2023-07-31T05:37:38;1.58;;;1.48;;
54787;SDS011;59598;48.112;16.280;2023-07-31T05:40:11;1.42;;;1.20;;
54787;SDS011;59598;48.112;16.280;2023-07-31T05:42:45;2.35;;;1.48;;
54787;SDS011;59598;48.112;16.280;2023-07-31T05:45:16;3.63;;;1.92;;
54787;SDS011;59598;48.112;16.280;2023-07-31T05:47:47;1.30;;;1.20;;
54787;SDS011;59598;48.112;16.280;2023-07-31T05:50:19;1.73;;;1.55;;
54787;SDS011;59598;48.112;16.280;2023-07-31T05:52:50;1.95;;;1.70;;
54787;SDS011;59598;48.112;16.280;2023-07-31T05:55:22;1.70;;;1.60;;
54787;SDS011;59598;48.112;16.280;2023-07-31T05:57:57;1.30;;;1.20;;
54787;SDS011;59598;48.112;16.280;2023-07-31T06:00:31;1.50;;;1.23;;
54787;SDS011;59598;48.112;16.280;2023-07-31T06:03:05;1.77;;;1.58;;
54787;SDS011;59598;48.112;16.280;2023-07-31T06:05:37;2.00;;;1.42;;
54787;SDS011;59598;48.112;16.280;2023-07-31T06:08:08;1.00;;;1.00;;
54787;SDS011;59598;48.112;16.280;2023-07-31T06:10:45;2.00;;;1.00;;
54787;SDS011;59598;48.112;16.280;2023-07-31T06:13:21;2.20;;;1.50;;
54787;SDS011;59598;48.112;16.280;2023-07-31T06:15:55;2.45;;;1.33;;
54787;SDS011;59598;48.112;16.280;2023-07-31T06:18:27;1.77;;;1.45;;
54787;SDS011;59598;48.112;16.280;2023-07-31T06:21:01;5.00;;;1.55;;
54787;SDS011;59598;48.112;16.280;2023-07-31T06:23:34;1.98;;;1.15;;
54787;SDS011;59598;48.112;16.280;2023-07-31T06:26:11;1.38;;;0.98;;
54787;SDS011;59598;48.112;16.280;2023-07-31T06:28:42;1.13;;;1.10;;
54787;SDS011;59598;48.112;16.280;2023-07-31T06:31:14;1.30;;;1.20;;
54787;SDS011;59598;48.112;16.280;2023-07-31T06:33:45;2.13;;;1.05;;
54787;SDS011;59598;48.112;16.280;2023-07-31T06:36:19;1.48;;;1.23;;
54787;SDS011;59598;48.112;16.280;2023-07-31T06:38:50;2.22;;;0.93;;
54787;SDS011;59598;48.112;16.280;2023-07-31T06:41:24;2.08;;;1.27;;
54787;SDS011;59598;48.112;16.280;2023-07-31T06:43:58;2.25;;;1.45;;
54787;SDS011;59598;48.112;16.280;2023-07-31T06:46:32;1.50;;;1.13;;
54787;SDS011;59598;48.112;16.280;2023-07-31T06:49:05;2.88;;;1.25;;
54787;SDS011;59598;48.112;16.280;2023-07-31T06:51:36;1.00;;;0.93;;
54787;SDS011;59598;48.112;16.280;2023-07-31T06:54:09;1.05;;;1.05;;
54787;SDS011;59598;48.112;16.280;2023-07-31T06:56:41;1.30;;;1.20;;
54787;SDS011;59598;48.112;16.280;2023-07-31T06:59:13;2.55;;;1.20;;
54787;SDS011;59598;48.112;16.280;2023-07-31T07:01:47;2.55;;;1.35;;
54787;SDS011;59598;48.112;16.280;2023-07-31T07:04:18;2.58;;;1.10;;
54787;SDS011;59598;48.112;16.280;2023-07-31T07:06:49;0.80;;;0.80;;
54787;SDS011;59598;48.112;16.280;2023-07-31T07:09:20;1.70;;;1.20;;
54787;SDS011;59598;48.112;16.280;2023-07-31T07:11:54;3.47;;;1.50;;
54787;SDS011;59598;48.112;16.280;2023-07-31T07:14:26;4.10;;;1.80;;
54787;SDS011;59598;48.112;16.280;2023-07-31T07:16:59;1.75;;;1.30;;
54787;SDS011;59598;48.112;16.280;2023-07-31T07:19:32;2.67;;;1.02;;
54787;SDS011;59598;48.112;16.280;2023-07-31T07:22:03;2.42;;;1.30;;
54787;SDS011;59598;48.112;16.280;2023-07-31T07:24:35;2.35;;;1.10;;
54787;SDS011;59598;48.112;16.280;2023-07-31T07:27:07;2.38;;;1.20;;
54787;SDS011;59598;48.112;16.280;2023-07-31T07:29:40;3.00;;;0.98;;
54787;SDS011;59598;48.112;16.280;2023-07-31T07:32:11;1.40;;;1.20;;
54787;SDS011;59598;48.112;16.280;2023-07-31T07:34:43;1.40;;;0.88;;
54787;SDS011;59598;48.112;16.280;2023-07-31T07:39:51;1.55;;;1.10;;
54787;SDS011;59598;48.112;16.280;2023-07-31T07:42:22;2.50;;;1.58;;
54787;SDS011;59598;48.112;16.280;2023-07-31T07:44:53;2.55;;;1.45;;
54787;SDS011;59598;48.112;16.280;2023-07-31T07:47:40;1.25;;;1.00;;
54787;SDS011;59598;48.112;16.280;2023-07-31T07:50:16;2.60;;;1.10;;
54787;SDS011;59598;48.112;16.280;2023-07-31T07:52:47;1.98;;;1.05;;
54787;SDS011;59598;48.112;16.280;2023-07-31T07:55:21;2.00;;;1.20;;
54787;SDS011;59598;48.112;16.280;2023-07-31T07:57:53;6.82;;;1.67;;
54787;SDS011;59598;48.112;16.280;2023-07-31T08:00:24;2.55;;;1.27;;
54787;SDS011;59598;48.112;16.280;2023-07-31T08:02:55;1.80;;;1.02;;
54787;SDS011;59598;48.112;16.280;2023-07-31T08:05:28;1.73;;;1.13;;
54787;SDS011;59598;48.112;16.280;2023-07-31T08:08:04;1.23;;;0.90;;
54787;SDS011;59598;48.112;16.280;2023-07-31T08:10:35;1.80;;;0.95;;
54787;SDS011;59598;48.112;16.280;2023-07-31T08:13:10;2.03;;;1.10;;
54787;SDS011;59598;48.112;16.280;2023-07-31T08:15:43;4.38;;;1.08;;
54787;SDS011;59598;48.112;16.280;2023-07-31T08:18:14;1.70;;;1.00;;
54787;SDS011;59598;48.112;16.280;2023-07-31T08:20:49;3.28;;;1.13;;
54787;SDS011;59598;48.112;16.280;2023-07-31T08:23:25;2.42;;;1.27;;
54787;SDS011;59598;48.112;16.280;2023-07-31T08:25:56;1.20;;;1.05;;
54787;SDS011;59598;48.112;16.280;2023-07-31T08:28:28;2.63;;;0.80;;
54787;SDS011;59598;48.112;16.280;2023-07-31T08:31:00;1.27;;;1.00;;
54787;SDS011;59598;48.112;16.280;2023-07-31T08:33:34;3.25;;;1.20;;
54787;SDS011;59598;48.112;16.280;2023-07-31T08:36:05;2.63;;;1.10;;
54787;SDS011;59598;48.112;16.280;2023-07-31T08:38:40;1.40;;;0.82;;
54787;SDS011;59598;48.112;16.280;2023-07-31T08:41:14;1.27;;;0.98;;
54787;SDS011;59598;48.112;16.280;2023-07-31T08:43:47;1.67;;;1.20;;
54787;SDS011;59598;48.112;16.280;2023-07-31T08:46:20;1.40;;;1.30;;
54787;SDS011;59598;48.112;16.280;2023-07-31T08:48:52;4.05;;;2.25;;
54787;SDS011;59598;48.112;16.280;2023-07-31T08:51:25;1.20;;;1.10;;
54787;SDS011;59598;48.112;16.280;2023-07-31T08:53:57;2.17;;;0.90;;
54787;SDS011;59598;48.112;16.280;2023-07-31T08:56:31;1.02;;;0.95;;
54787;SDS011;59598;48.112;16.280;2023-07-31T08:59:03;1.30;;;1.20;;
54787;SDS011;59598;48.112;16.280;2023-07-31T09:01:36;3.22;;;1.15;;
54787;SDS011;59598;48.112;16.280;2023-07-31T09:04:14;1.67;;;1.20;;
54787;SDS011;59598;48.112;16.280;2023-07-31T09:06:49;1.25;;;1.10;;
54787;SDS011;59598;48.112;16.280;2023-07-31T09:09:23;2.47;;;1.15;;
54787;SDS011;59598;48.112;16.280;2023-07-31T09:12:00;2.20;;;1.42;;
54787;SDS011;59598;48.112;16.280;2023-07-31T09:14:32;2.65;;;1.10;;
54787;SDS011;59598;48.112;16.280;2023-07-31T09:17:10;2.35;;;0.95;;
54787;SDS011;59598;48.112;16.280;2023-07-31T09:19:42;1.05;;;0.90;;
54787;SDS011;59598;48.112;16.280;2023-07-31T09:25:17;4.97;;;0.90;;
54787;SDS011;59598;48.112;16.280;2023-07-31T09:28:02;1.42;;;1.17;;
54787;SDS011;59598;48.112;16.280;2023-07-31T09:30:48;0.70;;;0.70;;
54787;SDS011;59598;48.112;16.280;2023-07-31T09:33:23;1.52;;;1.38;;
54787;SDS011;59598;48.112;16.280;2023-07-31T09:35:54;1.50;;;1.00;;
54787;SDS011;59598;48.112;16.280;2023-07-31T09:38:25;1.42;;;1.02;;
54787;SDS011;59598;48.112;16.280;2023-07-31T09:40:57;0.95;;;0.85;;
54787;SDS011;59598;48.112;16.280;2023-07-31T09:43:30;2.30;;;1.10;;
54787;SDS011;59598;48.112;16.280;2023-07-31T09:46:02;2.05;;;1.20;;
54787;SDS011;59598;48.112;16.280;2023-07-31T09:48:45;1.10;;;1.00;;
54787;SDS011;59598;48.112;16.280;2023-07-31T09:51:26;2.25;;;1.08;;
54787;SDS011;59598;48.112;16.280;2023-07-31T09:53:58;0.88;;;0.80;;
54787;SDS011;59598;48.112;16.280;2023-07-31T09:56:29;0.73;;;0.73;;
54787;SDS011;59598;48.112;16.280;2023-07-31T09:59:05;1.92;;;1.13;;
54787;SDS011;59598;48.112;16.280;2023-07-31T10:01:40;2.42;;;0.88;;
54787;SDS011;59598;48.112;16.280;2023-07-31T10:04:13;2.17;;;1.08;;
54787;SDS011;59598;48.112;16.280;2023-07-31T10:06:56;1.58;;;0.93;;
54787;SDS011;59598;48.112;16.280;2023-07-31T10:09:30;0.93;;;0.93;;
54787;SDS011;59598;48.112;16.280;2023-07-31T10:12:02;1.88;;;1.13;;
54787;SDS011;59598;48.112;16.280;2023-07-31T10:14:40;1.95;;;0.85;;
54787;SDS011;59598;48.112;16.280;2023-07-31T10:17:12;1.10;;;0.90;;
54787;SDS011;59598;48.112;16.280;2023-07-31T10:19:45;0.98;;;0.90;;
54787;SDS011;59598;48.112;16.280;2023-07-31T10:22:20;1.15;;;0.80;;
54787;SDS011;59598;48.112;16.280;2023-07-31T10:24:52;0.98;;;0.70;;
54787;SDS011;59598;48.112;16.280;2023-07-31T10:27:26;3.73;;;0.83;;
54787;SDS011;59598;48.112;16.280;2023-07-31T10:29:57;1.58;;;0.98;;
54787;SDS011;59598;48.112;16.280;2023-07-31T10:35:03;1.45;;;0.93;;
54787;SDS011;59598;48.112;16.280;2023-07-31T10:37:40;1.88;;;1.00;;
54787;SDS011;59598;48.112;16.280;2023-07-31T10:40:18;0.82;;;0.77;;
54787;SDS011;59598;48.112;16.280;2023-07-31T10:42:52;1.05;;;0.80;;
54787;SDS011;59598;48.112;16.280;2023-07-31T10:45:25;1.30;;;1.00;;
54787;SDS011;59598;48.112;16.280;2023-07-31T10:48:04;0.60;;;0.60;;
54787;SDS011;59598;48.112;16.280;2023-07-31T10:50:47;0.80;;;0.80;;
54787;SDS011;59598;48.112;16.280;2023-07-31T10:53:26;1.17;;;0.73;;
54787;SDS011;59598;48.112;16.280;2023-07-31T10:56:05;1.60;;;1.00;;
54787;SDS011;59598;48.112;16.280;2023-07-31T10:58:38;2.38;;;0.70;;
54787;SDS011;59598;48.112;16.280;2023-07-31T11:01:14;1.05;;;0.73;;
54787;SDS011;59598;48.112;16.280;2023-07-31T11:03:48;1.25;;;0.82;;
54787;SDS011;59598;48.112;16.280;2023-07-31T11:06:22;0.98;;;0.90;;
54787;SDS011;59598;48.112;16.280;2023-07-31T11:08:53;1.80;;;1.08;;
54787;SDS011;59598;48.112;16.280;2023-07-31T11:11:25;0.68;;;0.68;;
54787;SDS011;59598;48.112;16.280;2023-07-31T11:13:56;0.77;;;0.77;;
54787;SDS011;59598;48.112;16.280;2023-07-31T11:16:27;1.20;;;0.68;;
54787;SDS011;59598;48.112;16.280;2023-07-31T11:19:01;0.90;;;0.80;;
54787;SDS011;59598;48.112;16.280;2023-07-31T11:21:32;2.95;;;0.60;;
54787;SDS011;59598;48.112;16.280;2023-07-31T11:24:06;1.75;;;1.02;;
54787;SDS011;59598;48.112;16.280;2023-07-31T11:26:52;1.42;;;0.85;;
54787;SDS011;59598;48.112;16.280;2023-07-31T11:29:27;1.88;;;1.13;;
54787;SDS011;59598;48.112;16.280;2023-07-31T11:31:59;1.17;;;0.73;;
54787;SDS011;59598;48.112;16.280;2023-07-31T11:34:30;2.30;;;0.95;;
54787;SDS011;59598;48.112;16.280;2023-07-31T11:37:02;1.08;;;0.80;;
54787;SDS011;59598;48.112;16.280;2023-07-31T11:39:36;1.20;;;0.93;;
54787;SDS011;59598;48.112;16.280;2023-07-31T11:42:07;1.15;;;0.90;;
54787;SDS011;59598;48.112;16.280;2023-07-31T11:44:39;1.17;;;0.60;;
54787;SDS011;59598;48.112;16.280;2023-07-31T11:47:14;2.00;;;0.95;;
54787;SDS011;59598;48.112;16.280;2023-07-31T11:49:47;0.87;;;0.87;;
54787;SDS011;59598;48.112;16.280;2023-07-31T11:52:20;3.35;;;0.80;;
54787;SDS011;59598;48.112;16.280;2023-07-31T11:54:56;0.82;;;0.77;;
54787;SDS011;59598;48.112;16.280;2023-07-31T11:57:28;1.35;;;0.90;;
54787;SDS011;59598;48.112;16.280;2023-07-31T12:00:06;1.20;;;0.80;;
54787;SDS011;59598;48.112;16.280;2023-07-31T12:02:40;0.95;;;0.90;;
54787;SDS011;59598;48.112;16.280;2023-07-31T12:05:12;1.13;;;0.90;;
54787;SDS011;59598;48.112;16.280;2023-07-31T12:07:47;1.10;;;1.02;;
54787;SDS011;59598;48.112;16.280;2023-07-31T12:10:27;1.17;;;0.80;;
54787;SDS011;59598;48.112;16.280;2023-07-31T12:13:20;1.02;;;0.93;;
54787;SDS011;59598;48.112;16.280;2023-07-31T12:15:56;1.02;;;0.90;;
54787;SDS011;59598;48.112;16.280;2023-07-31T12:18:29;1.98;;;0.82;;
54787;SDS011;59598;48.112;16.280;2023-07-31T12:21:07;1.15;;;0.90;;
54787;SDS011;59598;48.112;16.280;2023-07-31T12:23:43;1.60;;;1.00;;
54787;SDS011;59598;48.112;16.280;2023-07-31T12:26:17;1.65;;;0.90;;
54787;SDS011;59598;48.112;16.280;2023-07-31T12:28:54;1.67;;;1.23;;
54787;SDS011;59598;48.112;16.280;2023-07-31T12:31:27;1.92;;;1.13;;
54787;SDS011;59598;48.112;16.280;2023-07-31T12:34:01;1.45;;;0.90;;
54787;SDS011;59598;48.112;16.280;2023-07-31T12:36:33;0.90;;;0.90;;
54787;SDS011;59598;48.112;16.280;2023-07-31T12:39:06;1.48;;;1.08;;
54787;SDS011;59598;48.112;16.280;2023-07-31T12:41:40;1.45;;;1.00;;
54787;SDS011;59598;48.112;16.280;2023-07-31T12:46:42;1.88;;;1.30;;
54787;SDS011;59598;48.112;16.280;2023-07-31T12:49:14;1.70;;;1.38;;
54787;SDS011;59598;48.112;16.280;2023-07-31T12:51:46;1.85;;;1.10;;
54787;SDS011;59598;48.112;16.280;2023-07-31T12:54:17;2.63;;;1.20;;
54787;SDS011;59598;48.112;16.280;2023-07-31T12:56:48;1.30;;;1.20;;
54787;SDS011;59598;48.112;16.280;2023-07-31T12:59:19;2.20;;;1.00;;
54787;SDS011;59598;48.112;16.280;2023-07-31T13:01:53;1.30;;;0.85;;
54787;SDS011;59598;48.112;16.280;2023-07-31T13:04:25;1.42;;;1.13;;
54787;SDS011;59598;48.112;16.280;2023-07-31T13:06:56;1.40;;;1.02;;
54787;SDS011;59598;48.112;16.280;2023-07-31T13:09:33;1.05;;;0.80;;
54787;SDS011;59598;48.112;16.280;2023-07-31T13:12:04;2.13;;;0.85;;
54787;SDS011;59598;48.112;16.280;2023-07-31T13:17:12;1.50;;;1.08;;
54787;SDS011;59598;48.112;16.280;2023-07-31T13:19:43;4.28;;;1.10;;
54787;SDS011;59598;48.112;16.280;2023-07-31T13:22:18;1.63;;;0.95;;
54787;SDS011;59598;48.112;16.280;2023-07-31T13:24:54;0.85;;;0.85;;
54787;SDS011;59598;48.112;16.280;2023-07-31T13:27:26;1.77;;;0.77;;
54787;SDS011;59598;48.112;16.280;2023-07-31T13:29:57;1.02;;;0.93;;
54787;SDS011;59598;48.112;16.280;2023-07-31T13:32:29;1.98;;;1.02;;
54787;SDS011;59598;48.112;16.280;2023-07-31T13:35:09;3.22;;;1.30;;
54787;SDS011;59598;48.112;16.280;2023-07-31T13:37:43;1.80;;;1.10;;
54787;SDS011;59598;48.112;16.280;2023-07-31T13:40:20;1.35;;;0.82;;
54787;SDS011;59598;48.112;16.280;2023-07-31T13:42:52;1.23;;;1.00;;
54787;SDS011;59598;48.112;16.280;2023-07-31T13:45:24;1.83;;;1.00;;
54787;SDS011;59598;48.112;16.280;2023-07-31T13:47:57;5.03;;;1.35;;
54787;SDS011;59598;48.112;16.280;2023-07-31T13:50:29;1.33;;;0.98;;
54787;SDS011;59598;48.112;16.280;2023-07-31T13:53:04;1.02;;;1.02;;
54787;SDS011;59598;48.112;16.280;2023-07-31T13:55:38;0.80;;;0.80;;
54787;SDS011;59598;48.112;16.280;2023-07-31T13:58:15;1.90;;;1.10;;
54787;SDS011;59598;48.112;16.280;2023-07-31T14:00:48;1.38;;;0.93;;
54787;SDS011;59598;48.112;16.280;2023-07-31T14:03:19;3.47;;;1.50;;
54787;SDS011;59598;48.112;16.280;2023-07-31T14:05:52;1.27;;;1.10;;
54787;SDS011;59598;48.112;16.280;2023-07-31T14:08:24;1.10;;;1.00;;
54787;SDS011;59598;48.112;16.280;2023-07-31T14:10:58;1.20;;;1.02;;
54787;SDS011;59598;48.112;16.280;2023-07-31T14:13:29;1.33;;;0.80;;
54787;SDS011;59598;48.112;16.280;2023-07-31T14:16:03;1.92;;;0.98;;
54787;SDS011;59598;48.112;16.280;2023-07-31T14:18:34;1.38;;;1.08;;
54787;SDS011;59598;48.112;16.280;2023-07-31T14:21:08;1.60;;;1.00;;
54787;SDS011;59598;48.112;16.280;2023-07-31T14:23:40;1.52;;;1.08;;
54787;SDS011;59598;48.112;16.280;2023-07-31T14:26:12;1.63;;;1.00;;
54787;SDS011;59598;48.112;16.280;2023-07-31T14:28:44;1.42;;;0.90;;
54787;SDS011;59598;48.112;16.280;2023-07-31T14:33:49;1.10;;;1.00;;
54787;SDS011;59598;48.112;16.280;2023-07-31T14:36:22;0.93;;;0.88;;
54787;SDS011;59598;48.112;16.280;2023-07-31T14:38:53;1.30;;;1.20;;
54787;SDS011;59598;48.112;16.280;2023-07-31T14:41:27;1.40;;;1.13;;
54787;SDS011;59598;48.112;16.280;2023-07-31T14:43:58;1.27;;;1.00;;
54787;SDS011;59598;48.112;16.280;2023-07-31T14:46:29;0.98;;;0.95;;
54787;SDS011;59598;48.112;16.280;2023-07-31T14:49:01;1.15;;;1.10;;
54787;SDS011;59598;48.112;16.280;2023-07-31T14:51:34;1.02;;;0.93;;
54787;SDS011;59598;48.112;16.280;2023-07-31T14:54:09;0.70;;;0.70;;
54787;SDS011;59598;48.112;16.280;2023-07-31T14:56:41;1.63;;;0.93;;
54787;SDS011;59598;48.112;16.280;2023-07-31T14:59:12;1.23;;;0.98;;
54787;SDS011;59598;48.112;16.280;2023-07-31T15:01:43;1.65;;;1.15;;
54787;SDS011;59598;48.112;16.280;2023-07-31T15:04:17;1.33;;;0.80;;
54787;SDS011;59598;48.112;16.280;2023-07-31T15:06:51;0.80;;;0.80;;
54787;SDS011;59598;48.112;16.280;2023-07-31T15:09:22;2.25;;;1.00;;
54787;SDS011;59598;48.112;16.280;2023-07-31T15:11:59;1.95;;;1.02;;
54787;SDS011;59598;48.112;16.280;2023-07-31T15:14:30;2.05;;;1.33;;
54787;SDS011;59598;48.112;16.280;2023-07-31T15:17:02;1.13;;;1.02;;
54787;SDS011;59598;48.112;16.280;2023-07-31T15:19:33;0.90;;;0.90;;
54787;SDS011;59598;48.112;16.280;2023-07-31T15:22:08;1.48;;;1.13;;
54787;SDS011;59598;48.112;16.280;2023-07-31T15:24:39;1.35;;;0.98;;
54787;SDS011;59598;48.112;16.280;2023-07-31T15:27:10;1.15;;;0.90;;
54787;SDS011;59598;48.112;16.280;2023-07-31T15:29:49;2.17;;;0.98;;
54787;SDS011;59598;48.112;16.280;2023-07-31T15:32:22;0.98;;;0.73;;
54787;SDS011;59598;48.112;16.280;2023-07-31T15:34:54;1.67;;;1.20;;
54787;SDS011;59598;48.112;16.280;2023-07-31T15:37:25;1.88;;;1.20;;
54787;SDS011;59598;48.112;16.280;2023-07-31T15:39:59;2.05;;;1.42;;
54787;SDS011;59598;48.112;16.280;2023-07-31T15:42:30;1.20;;;0.95;;